createdAt,value
2022-08-27T00:01:49.821Z,22.18
2022-08-27T00:04:18.180Z,22.20
2022-08-27T00:06:46.426Z,22.27
2022-08-27T00:09:14.994Z,22.23
2022-08-27T00:11:44.717Z,22.34
2022-08-27T00:14:13.161Z,22.30
2022-08-27T00:16:43.216Z,22.32
2022-08-27T00:19:11.898Z,22.26
2022-08-27T00:21:40.076Z,22.31
2022-08-27T00:24:08.343Z,22.19
2022-08-27T00:26:41.339Z,22.24
2022-08-27T00:29:11.260Z,22.18
2022-08-27T00:31:39.293Z,22.09
2022-08-27T00:34:09.126Z,21.89
2022-08-27T00:36:41.158Z,21.91
2022-08-27T00:39:09.129Z,21.80
2022-08-27T00:41:38.123Z,21.48
2022-08-27T00:44:07.158Z,21.66
2022-08-27T00:46:39.017Z,21.61
2022-08-27T00:49:12.599Z,21.50
2022-08-27T00:51:41.815Z,21.26
2022-08-27T00:54:10.455Z,21.21
2022-08-27T00:56:50.585Z,21.14
2022-08-27T00:59:23.864Z,21.30
2022-08-27T01:02:08.905Z,21.20
2022-08-27T01:04:40.853Z,21.14
2022-08-27T01:07:09.641Z,21.19
2022-08-27T01:09:38.640Z,21.34
2022-08-27T01:12:07.204Z,21.25
2022-08-27T01:14:35.518Z,21.11
2022-08-27T01:17:05.298Z,20.96
2022-08-27T01:19:39.396Z,20.98
2022-08-27T01:22:19.125Z,21.02
2022-08-27T01:24:53.734Z,21.16
2022-08-27T01:27:25.483Z,21.28
2022-08-27T01:29:53.617Z,21.33
2022-08-27T01:32:23.640Z,21.19
2022-08-27T01:34:52.123Z,21.22
2022-08-27T01:37:23.598Z,21.22
2022-08-27T01:39:55.288Z,21.16
2022-08-27T01:42:26.650Z,21.14
2022-08-27T01:44:57.810Z,21.18
2022-08-27T01:47:30.676Z,21.24
2022-08-27T01:50:00.515Z,21.20
2022-08-27T01:52:31.343Z,21.27
2022-08-27T01:55:00.981Z,21.26
2022-08-27T01:57:29.003Z,21.26
2022-08-27T01:59:58.138Z,21.13
2022-08-27T02:02:26.734Z,21.15
2022-08-27T02:04:54.810Z,21.09
2022-08-27T02:07:22.887Z,20.96
2022-08-27T02:09:51.288Z,20.96
2022-08-27T02:12:20.871Z,20.86
2022-08-27T02:14:48.881Z,20.68
2022-08-27T02:17:16.918Z,20.63
2022-08-27T02:19:45.299Z,20.65
2022-08-27T02:22:13.277Z,20.67
2022-08-27T02:24:42.213Z,20.68
2022-08-27T02:27:10.538Z,20.68
2022-08-27T02:29:40.218Z,20.61
2022-08-27T02:32:23.837Z,20.68
2022-08-27T02:34:56.548Z,20.69
2022-08-27T02:37:24.626Z,20.66
2022-08-27T02:39:52.890Z,20.86
2022-08-27T02:42:21.161Z,20.83
2022-08-27T02:44:50.665Z,20.82
2022-08-27T02:47:18.633Z,20.73
2022-08-27T02:49:46.819Z,20.83
2022-08-27T02:52:14.833Z,20.83
2022-08-27T02:54:43.979Z,20.87
2022-08-27T02:57:12.309Z,20.96
2022-08-27T02:59:40.294Z,20.89
2022-08-27T03:02:10.735Z,20.89
2022-08-27T03:04:38.818Z,20.94
2022-08-27T03:07:06.855Z,20.75
2022-08-27T03:09:36.334Z,20.44
2022-08-27T03:12:05.384Z,20.61
2022-08-27T03:14:33.578Z,20.64
2022-08-27T03:17:22.417Z,20.65
2022-08-27T03:19:50.868Z,20.70
2022-08-27T03:22:18.865Z,20.63
2022-08-27T03:24:47.033Z,20.61
2022-08-27T03:27:15.482Z,20.62
2022-08-27T03:29:43.524Z,20.59
2022-08-27T03:32:11.522Z,20.60
2022-08-27T03:34:39.601Z,20.34
2022-08-27T03:37:08.940Z,20.21
2022-08-27T03:39:37.145Z,20.26
2022-08-27T03:42:05.569Z,20.17
2022-08-27T03:44:33.575Z,20.32
2022-08-27T03:47:02.037Z,20.29
2022-08-27T03:49:30.036Z,20.46
2022-08-27T03:52:00.382Z,20.48
2022-08-27T03:54:31.263Z,20.55
2022-08-27T03:56:59.273Z,20.62
2022-08-27T03:59:27.232Z,20.63
2022-08-27T04:01:55.299Z,20.59
2022-08-27T04:04:24.205Z,20.60
2022-08-27T04:06:52.355Z,20.69
2022-08-27T04:09:20.419Z,20.56
2022-08-27T04:11:49.795Z,20.48
2022-08-27T04:14:26.848Z,20.45
2022-08-27T04:16:56.513Z,20.45
2022-08-27T04:19:27.802Z,20.48
2022-08-27T04:22:01.318Z,20.60
2022-08-27T04:24:30.952Z,20.64
2022-08-27T04:27:00.377Z,20.64
2022-08-27T04:29:28.843Z,20.64
2022-08-27T04:31:57.393Z,20.57
2022-08-27T04:34:25.742Z,20.48
2022-08-27T04:36:56.622Z,20.28
2022-08-27T04:39:25.115Z,20.26
2022-08-27T04:41:54.636Z,20.16
2022-08-27T04:44:24.825Z,20.44
2022-08-27T04:46:56.867Z,20.47
2022-08-27T04:49:25.482Z,20.41
2022-08-27T04:51:53.673Z,20.55
2022-08-27T04:54:25.990Z,20.49
2022-08-27T04:57:01.430Z,20.13
2022-08-27T04:59:31.222Z,20.15
2022-08-27T05:01:59.722Z,20.00
2022-08-27T05:04:29.168Z,19.84
2022-08-27T05:06:57.187Z,19.70
2022-08-27T05:09:26.515Z,19.70
2022-08-27T05:11:55.554Z,19.78
2022-08-27T05:14:25.405Z,19.88
2022-08-27T05:16:54.724Z,19.92
2022-08-27T05:19:22.786Z,20.03
2022-08-27T05:21:53.143Z,20.08
2022-08-27T05:24:22.199Z,20.16
2022-08-27T05:26:50.467Z,20.25
2022-08-27T05:29:18.614Z,20.20
2022-08-27T05:31:47.930Z,20.23
2022-08-27T05:34:24.662Z,20.17
2022-08-27T05:36:55.744Z,20.06
2022-08-27T05:39:24.234Z,20.32
2022-08-27T05:41:53.664Z,20.31
2022-08-27T05:44:40.654Z,20.33
2022-08-27T05:47:09.318Z,20.46
2022-08-27T05:49:39.012Z,20.46
2022-08-27T05:52:10.785Z,20.27
2022-08-27T05:54:39.827Z,20.44
2022-08-27T05:57:08.119Z,20.55
2022-08-27T05:59:53.607Z,20.72
2022-08-27T06:02:21.722Z,20.70
2022-08-27T06:04:51.163Z,20.86
2022-08-27T06:07:19.453Z,21.05
2022-08-27T06:09:47.394Z,21.13
2022-08-27T06:12:15.391Z,21.31
2022-08-27T06:14:43.429Z,21.45
2022-08-27T06:17:11.402Z,21.46
2022-08-27T06:19:39.334Z,21.66
2022-08-27T06:22:10.668Z,21.92
2022-08-27T06:24:40.412Z,22.12
2022-08-27T06:27:10.097Z,22.27
2022-08-27T06:29:38.142Z,22.36
2022-08-27T06:32:06.669Z,22.52
2022-08-27T06:34:35.158Z,22.73
2022-08-27T06:37:03.151Z,22.81
2022-08-27T06:39:32.996Z,22.88
2022-08-27T06:42:00.941Z,22.97
2022-08-27T06:44:28.881Z,23.08
2022-08-27T06:46:56.870Z,23.19
2022-08-27T06:49:25.098Z,23.31
2022-08-27T06:51:53.630Z,23.34
2022-08-27T06:54:21.629Z,23.42
2022-08-27T06:56:51.028Z,23.58
2022-08-27T06:59:20.822Z,23.77
2022-08-27T07:01:51.661Z,23.87
2022-08-27T07:04:22.402Z,23.96
2022-08-27T07:06:55.916Z,24.10
2022-08-27T07:09:25.426Z,24.16
2022-08-27T07:11:54.802Z,24.21
2022-08-27T07:14:22.775Z,24.44
2022-08-27T07:16:52.091Z,24.58
2022-08-27T07:19:21.071Z,24.52
2022-08-27T07:21:50.771Z,24.55
2022-08-27T07:24:19.607Z,24.69
2022-08-27T07:26:47.863Z,25.01
2022-08-27T07:29:20.256Z,25.17
2022-08-27T07:31:48.270Z,25.25
2022-08-27T07:34:16.361Z,25.40
2022-08-27T07:36:44.339Z,25.55
2022-08-27T07:39:13.951Z,25.67
2022-08-27T07:41:55.963Z,25.64
2022-08-27T07:44:34.174Z,25.53
2022-08-27T07:47:02.678Z,25.70
2022-08-27T07:49:31.872Z,25.82
2022-08-27T07:51:59.897Z,26.01
2022-08-27T07:54:28.437Z,26.10
2022-08-27T07:56:56.889Z,26.19
2022-08-27T07:59:27.518Z,26.18
2022-08-27T08:01:56.383Z,26.23
2022-08-27T08:04:24.651Z,26.20
2022-08-27T08:06:52.994Z,26.36
2022-08-27T08:09:23.880Z,26.53
2022-08-27T08:11:52.739Z,26.76
2022-08-27T08:14:21.106Z,26.84
2022-08-27T08:16:50.627Z,26.98
2022-08-27T08:19:18.750Z,27.00
2022-08-27T08:21:46.760Z,27.04
2022-08-27T08:24:14.874Z,27.06
2022-08-27T08:26:44.336Z,27.20
2022-08-27T08:29:17.871Z,27.14
2022-08-27T08:31:49.938Z,27.27
2022-08-27T08:34:20.793Z,27.32
2022-08-27T08:36:54.016Z,27.51
2022-08-27T08:39:23.531Z,27.49
2022-08-27T08:41:54.643Z,27.54
2022-08-27T08:44:31.892Z,27.71
2022-08-27T08:47:04.797Z,27.82
2022-08-27T08:49:41.954Z,27.98
2022-08-27T08:52:30.616Z,28.09
2022-08-27T08:55:09.030Z,28.20
2022-08-27T08:57:42.328Z,28.15
2022-08-27T09:00:13.308Z,28.18
2022-08-27T09:02:43.267Z,28.30
2022-08-27T09:05:12.841Z,28.41
2022-08-27T09:07:47.522Z,28.40
2022-08-27T09:10:22.523Z,28.51
2022-08-27T09:12:52.857Z,28.61
2022-08-27T09:15:26.301Z,28.63
2022-08-27T09:18:04.910Z,28.71
2022-08-27T09:20:36.503Z,28.75
2022-08-27T09:23:12.899Z,28.78
2022-08-27T09:25:43.510Z,28.79
2022-08-27T09:28:27.931Z,28.93
2022-08-27T09:30:56.752Z,29.09
2022-08-27T09:33:24.740Z,29.17
2022-08-27T09:35:54.085Z,29.24
2022-08-27T09:38:29.516Z,29.25
2022-08-27T09:41:02.512Z,29.11
2022-08-27T09:43:32.002Z,29.07
2022-08-27T09:46:02.572Z,29.34
2022-08-27T09:48:32.171Z,29.48
2022-08-27T09:51:04.220Z,29.63
2022-08-27T09:53:38.381Z,29.82
2022-08-27T09:56:09.899Z,29.96
2022-08-27T09:58:52.478Z,30.06
2022-08-27T10:01:23.883Z,30.05
2022-08-27T10:03:52.648Z,30.11
2022-08-27T10:06:29.990Z,30.05
2022-08-27T10:09:06.960Z,30.08
2022-08-27T10:11:40.312Z,30.14
2022-08-27T10:14:16.154Z,30.33
2022-08-27T10:17:00.974Z,30.41
2022-08-27T10:19:47.984Z,30.27
2022-08-27T10:22:32.581Z,30.26
2022-08-27T10:25:11.070Z,29.98
2022-08-27T10:27:50.722Z,30.11
2022-08-27T10:30:21.701Z,30.34
2022-08-27T10:33:03.788Z,30.45
2022-08-27T10:35:40.618Z,30.42
2022-08-27T10:38:22.913Z,30.58
2022-08-27T10:40:57.621Z,30.68
2022-08-27T10:43:48.007Z,30.81
2022-08-27T10:46:40.283Z,30.96
2022-08-27T10:49:27.026Z,30.99
2022-08-27T10:52:08.295Z,31.06
2022-08-27T10:54:43.685Z,31.04
2022-08-27T10:57:40.015Z,31.02
2022-08-27T11:00:15.964Z,31.18
2022-08-27T11:02:48.619Z,31.20
2022-08-27T11:05:19.251Z,31.07
2022-08-27T11:07:52.524Z,31.21
2022-08-27T11:10:27.639Z,31.29
2022-08-27T11:13:00.168Z,31.14
2022-08-27T11:15:32.331Z,31.25
2022-08-27T11:18:05.341Z,31.30
2022-08-27T11:20:37.651Z,31.36
2022-08-27T11:23:10.140Z,31.33
2022-08-27T11:25:51.863Z,31.36
2022-08-27T11:28:29.592Z,31.41
2022-08-27T11:31:05.903Z,31.52
2022-08-27T11:33:46.116Z,31.52
2022-08-27T11:36:41.637Z,31.31
2022-08-27T11:39:22.746Z,31.57
2022-08-27T11:42:02.081Z,31.54
2022-08-27T11:44:30.500Z,31.42
2022-08-27T11:47:09.539Z,31.43
2022-08-27T11:49:44.822Z,31.51
2022-08-27T11:52:21.331Z,31.68
2022-08-27T11:54:52.204Z,31.84
2022-08-27T11:57:33.743Z,31.85
2022-08-27T12:00:17.497Z,31.79
2022-08-27T12:02:46.347Z,31.96
2022-08-27T12:05:26.848Z,31.91
2022-08-27T12:07:54.980Z,31.87
2022-08-27T12:10:33.052Z,32.10
2022-08-27T12:13:21.304Z,32.12
2022-08-27T12:16:03.153Z,32.23
2022-08-27T12:18:53.959Z,32.24
2022-08-27T12:21:33.523Z,32.24
2022-08-27T12:24:49.950Z,32.11
2022-08-27T12:27:34.585Z,32.15
2022-08-27T12:30:21.201Z,32.06
2022-08-27T12:32:52.485Z,31.90
2022-08-27T12:35:24.154Z,31.77
2022-08-27T12:38:03.857Z,31.82
2022-08-27T12:40:41.921Z,32.05
2022-08-27T12:43:15.775Z,32.19
2022-08-27T12:45:48.384Z,32.17
2022-08-27T12:48:20.631Z,31.86
2022-08-27T12:50:54.052Z,32.05
2022-08-27T12:53:43.257Z,32.20
2022-08-27T12:56:37.725Z,32.18
2022-08-27T12:59:24.450Z,32.32
2022-08-27T13:02:09.344Z,32.43
2022-08-27T13:04:40.741Z,32.57
2022-08-27T13:07:08.919Z,32.67
2022-08-27T13:09:38.916Z,32.70
2022-08-27T13:12:15.774Z,32.70
2022-08-27T13:14:43.726Z,32.70
2022-08-27T13:17:19.907Z,32.55
2022-08-27T13:19:53.198Z,32.62
2022-08-27T13:22:26.243Z,32.62
2022-08-27T13:24:55.836Z,32.72
2022-08-27T13:27:29.432Z,32.68
2022-08-27T13:30:00.353Z,32.74
2022-08-27T13:32:31.983Z,32.73
2022-08-27T13:35:01.375Z,32.56
2022-08-27T13:37:34.764Z,32.65
2022-08-27T13:40:02.828Z,32.58
2022-08-27T13:42:31.655Z,32.66
2022-08-27T13:45:04.437Z,32.67
2022-08-27T13:47:45.332Z,32.72
2022-08-27T13:50:20.913Z,32.66
2022-08-27T13:53:07.222Z,32.43
2022-08-27T13:55:41.796Z,32.37
2022-08-27T13:58:20.003Z,32.40
2022-08-27T14:00:48.176Z,32.57
2022-08-27T14:03:32.818Z,32.31
2022-08-27T14:06:01.350Z,32.37
2022-08-27T14:08:32.820Z,32.52
2022-08-27T14:11:03.776Z,32.27
2022-08-27T14:13:40.525Z,32.26
2022-08-27T14:16:17.623Z,32.38
2022-08-27T14:18:59.306Z,32.44
2022-08-27T14:21:27.809Z,32.66
2022-08-27T14:23:55.961Z,32.66
2022-08-27T14:26:24.149Z,32.59
2022-08-27T14:28:52.243Z,32.65
2022-08-27T14:32:28.305Z,32.62
2022-08-27T14:34:56.323Z,32.51
2022-08-27T14:37:24.359Z,32.59
2022-08-27T14:39:52.608Z,32.57
2022-08-27T14:42:21.629Z,32.57
2022-08-27T14:44:51.751Z,32.58
2022-08-27T14:47:20.206Z,32.51
2022-08-27T14:49:49.711Z,32.32
2022-08-27T14:52:17.794Z,32.37
2022-08-27T14:54:45.999Z,32.40
2022-08-27T14:57:13.979Z,32.13
2022-08-27T14:59:42.686Z,32.34
2022-08-27T15:02:13.802Z,32.41
2022-08-27T15:04:42.375Z,32.27
2022-08-27T15:07:16.961Z,32.20
2022-08-27T15:09:45.039Z,31.90
2022-08-27T15:12:17.789Z,32.01
2022-08-27T15:14:55.169Z,32.06
2022-08-27T15:17:34.409Z,31.98
2022-08-27T15:20:03.809Z,31.78
2022-08-27T15:22:35.546Z,31.67
2022-08-27T15:25:05.268Z,31.83
2022-08-27T15:27:38.610Z,31.82
2022-08-27T15:30:09.950Z,32.00
2022-08-27T15:32:41.775Z,31.98
2022-08-27T15:35:14.004Z,31.90
2022-08-27T15:37:44.664Z,31.85
2022-08-27T15:40:14.814Z,31.90
2022-08-27T15:42:43.391Z,31.79
2022-08-27T15:45:13.583Z,31.76
2022-08-27T15:47:41.692Z,31.71
2022-08-27T15:50:10.308Z,31.65
2022-08-27T15:52:40.666Z,31.60
2022-08-27T15:55:17.762Z,31.56
2022-08-27T15:57:45.764Z,31.50
2022-08-27T16:00:16.463Z,31.49
2022-08-27T16:02:45.706Z,31.39
2022-08-27T16:05:15.189Z,31.30
2022-08-27T16:07:44.201Z,31.29
2022-08-27T16:10:14.461Z,31.24
2022-08-27T16:12:42.517Z,31.10
2022-08-27T16:15:11.577Z,31.09
2022-08-27T16:17:40.161Z,31.04
2022-08-27T16:20:10.515Z,31.01
2022-08-27T16:22:38.811Z,30.98
2022-08-27T16:25:08.443Z,30.83
2022-08-27T16:27:38.703Z,30.82
2022-08-27T16:30:08.233Z,30.74
2022-08-27T16:32:36.259Z,30.65
2022-08-27T16:35:04.366Z,30.54
2022-08-27T16:37:32.398Z,30.25
2022-08-27T16:40:00.503Z,30.36
2022-08-27T16:42:28.903Z,30.37
2022-08-27T16:44:58.277Z,30.32
2022-08-27T16:47:26.311Z,30.28
2022-08-27T16:50:12.015Z,30.23
2022-08-27T16:52:52.447Z,30.18
2022-08-27T16:55:20.463Z,30.09
2022-08-27T16:57:48.392Z,30.00
2022-08-27T17:00:19.171Z,29.98
2022-08-27T17:02:47.307Z,29.89
2022-08-27T17:05:33.442Z,29.88
2022-08-27T17:08:02.523Z,29.84
2022-08-27T17:10:35.827Z,29.70
2022-08-27T17:13:03.813Z,29.74
2022-08-27T17:15:33.423Z,29.67
2022-08-27T17:18:02.808Z,29.65
2022-08-27T17:20:33.553Z,29.53
2022-08-27T17:23:02.434Z,29.54
2022-08-27T17:25:30.715Z,29.46
2022-08-27T17:28:00.362Z,29.41
2022-08-27T17:30:28.855Z,29.35
2022-08-27T17:32:58.371Z,29.28
2022-08-27T17:35:26.429Z,29.24
2022-08-27T17:37:54.671Z,29.14
2022-08-27T17:40:22.867Z,29.11
2022-08-27T17:42:51.291Z,29.04
2022-08-27T17:45:19.503Z,28.53
2022-08-27T17:47:47.504Z,28.81
2022-08-27T17:50:16.942Z,28.80
2022-08-27T17:52:44.996Z,28.36
2022-08-27T17:55:16.266Z,28.64
2022-08-27T17:57:44.640Z,28.60
2022-08-27T18:00:14.925Z,28.57
2022-08-27T18:02:46.203Z,28.42
2022-08-27T18:05:16.798Z,28.42
2022-08-27T18:07:45.361Z,28.30
2022-08-27T18:10:15.872Z,28.22
2022-08-27T18:12:45.877Z,28.11
2022-08-27T18:15:18.848Z,27.90
2022-08-27T18:17:52.488Z,28.03
2022-08-27T18:20:24.264Z,27.97
2022-08-27T18:22:53.145Z,27.90
2022-08-27T18:25:25.604Z,27.88
2022-08-27T18:27:57.025Z,27.85
2022-08-27T18:30:25.924Z,27.82
2022-08-27T18:32:54.450Z,27.71
2022-08-27T18:35:26.686Z,27.69
2022-08-27T18:37:55.262Z,27.55
2022-08-27T18:40:26.484Z,27.53
2022-08-27T18:42:56.320Z,27.55
2022-08-27T18:45:28.495Z,27.49
2022-08-27T18:47:59.697Z,27.09
2022-08-27T18:50:30.096Z,26.13
2022-08-27T18:52:58.496Z,26.08
2022-08-27T18:55:29.151Z,25.80
2022-08-27T18:57:57.236Z,26.13
2022-08-27T19:00:25.315Z,26.41
2022-08-27T19:02:54.028Z,26.38
2022-08-27T19:05:26.670Z,26.35
2022-08-27T19:07:56.730Z,25.76
2022-08-27T19:10:26.502Z,25.37
2022-08-27T19:12:55.194Z,25.12
2022-08-27T19:15:23.353Z,24.75
2022-08-27T19:17:55.055Z,24.68
2022-08-27T19:20:23.772Z,24.75
2022-08-27T19:22:51.866Z,25.07
2022-08-27T19:25:23.013Z,25.37
2022-08-27T19:27:52.946Z,25.54
2022-08-27T19:30:21.243Z,25.66
2022-08-27T19:32:54.830Z,25.77
2022-08-27T19:35:25.105Z,25.85
2022-08-27T19:37:53.627Z,25.93
2022-08-27T19:40:23.984Z,25.98
2022-08-27T19:42:52.244Z,26.03
2022-08-27T19:45:22.966Z,26.00
2022-08-27T19:47:53.538Z,26.03
2022-08-27T19:50:23.281Z,26.07
2022-08-27T19:52:51.829Z,26.05
2022-08-27T19:55:20.747Z,26.08
2022-08-27T19:57:51.366Z,26.16
2022-08-27T20:00:22.044Z,26.17
2022-08-27T20:02:50.903Z,26.21
2022-08-27T20:05:20.572Z,26.14
2022-08-27T20:07:49.682Z,26.05
2022-08-27T20:10:18.741Z,25.81
2022-08-27T20:12:46.901Z,25.86
2022-08-27T20:15:16.392Z,25.79
2022-08-27T20:17:45.217Z,25.35
2022-08-27T20:20:14.045Z,25.28
2022-08-27T20:22:42.466Z,25.02
2022-08-27T20:25:11.900Z,24.92
2022-08-27T20:27:40.097Z,24.74
2022-08-27T20:30:11.272Z,24.54
2022-08-27T20:32:40.871Z,24.48
2022-08-27T20:35:10.897Z,24.59
2022-08-27T20:37:42.145Z,24.82
2022-08-27T20:40:15.205Z,25.04
2022-08-27T20:42:44.367Z,25.12
2022-08-27T20:45:13.190Z,25.00
2022-08-27T20:47:44.486Z,24.91
2022-08-27T20:50:13.862Z,25.01
2022-08-27T20:52:42.491Z,25.01
2022-08-27T20:55:12.198Z,25.08
2022-08-27T20:58:04.503Z,25.15
2022-08-27T21:00:35.213Z,25.20
2022-08-27T21:03:04.839Z,25.17
2022-08-27T21:05:35.101Z,25.06
2022-08-27T21:08:04.122Z,25.05
2022-08-27T21:10:32.713Z,25.21
2022-08-27T21:13:04.559Z,24.71
2022-08-27T21:15:33.596Z,24.59
2022-08-27T21:18:01.711Z,24.75
2022-08-27T21:20:32.231Z,24.69
2022-08-27T21:23:00.286Z,24.76
2022-08-27T21:25:29.184Z,24.77
2022-08-27T21:27:57.997Z,24.78
2022-08-27T21:30:26.763Z,24.76
2022-08-27T21:32:56.154Z,24.75
2022-08-27T21:35:26.504Z,24.64
2022-08-27T21:37:56.722Z,24.55
2022-08-27T21:40:25.709Z,24.34
2022-08-27T21:42:54.768Z,24.20
2022-08-27T21:45:23.318Z,24.39
2022-08-27T21:47:52.618Z,24.61
2022-08-27T21:50:21.764Z,24.58
2022-08-27T21:52:49.853Z,24.58
2022-08-27T21:55:20.125Z,24.51
2022-08-27T21:57:48.682Z,24.56
2022-08-27T22:00:38.755Z,24.49
2022-08-27T22:03:10.330Z,24.67
2022-08-27T22:05:40.213Z,24.63
2022-08-27T22:08:09.400Z,24.61
2022-08-27T22:10:39.866Z,24.68
2022-08-27T22:13:08.600Z,24.68
2022-08-27T22:15:37.453Z,24.60
2022-08-27T22:18:06.597Z,24.68
2022-08-27T22:20:35.287Z,24.72
2022-08-27T22:23:05.094Z,24.48
2022-08-27T22:25:33.207Z,24.51
2022-08-27T22:28:02.622Z,24.31
2022-08-27T22:30:30.740Z,24.15
2022-08-27T22:32:58.788Z,24.27
2022-08-27T22:35:27.587Z,24.39
2022-08-27T22:37:57.121Z,24.40
2022-08-27T22:40:29.116Z,24.39
2022-08-27T22:42:57.818Z,24.46
2022-08-27T22:45:28.633Z,24.30
2022-08-27T22:47:57.034Z,24.33
2022-08-27T22:50:26.116Z,24.36
2022-08-27T22:52:54.241Z,24.36
2022-08-27T22:55:24.217Z,24.04
2022-08-27T22:57:54.752Z,23.86
2022-08-27T23:00:25.548Z,23.83
2022-08-27T23:02:55.353Z,23.95
2022-08-27T23:05:24.251Z,23.97
2022-08-27T23:07:52.452Z,23.98
2022-08-27T23:10:24.170Z,24.00
2022-08-27T23:12:53.695Z,24.09
2022-08-27T23:15:24.601Z,24.08
2022-08-27T23:17:54.255Z,24.02
2022-08-27T23:20:23.142Z,24.09
2022-08-27T23:22:53.164Z,24.08
2022-08-27T23:25:43.380Z,24.09
2022-08-27T23:28:15.195Z,24.04
2022-08-27T23:30:45.050Z,23.93
2022-08-27T23:33:15.357Z,23.96
2022-08-27T23:35:48.069Z,23.99
2022-08-27T23:38:17.120Z,24.02
2022-08-27T23:40:45.735Z,23.76
2022-08-27T23:43:14.486Z,23.63
2022-08-27T23:45:43.538Z,23.36
2022-08-27T23:48:13.082Z,23.60
2022-08-27T23:50:43.413Z,23.71
2022-08-27T23:53:12.389Z,23.70
2022-08-27T23:55:41.069Z,23.80
2022-08-27T23:58:09.918Z,23.74
